sensor_id;sensor_type;location;lat;lon;timestamp;pressure;altitude;pressure_sealevel;temperature;humidity
22647;BME280;11490;42.726;23.268;2022-12-22T00:02:24;95478.63;;;-0.55;95.13
22647;BME280;11490;42.726;23.268;2022-12-22T00:05:20;95473.72;;;-0.58;94.28
22647;BME280;11490;42.726;23.268;2022-12-22T00:08:05;95477.31;;;-0.59;93.68
22647;BME280;11490;42.726;23.268;2022-12-22T00:10:50;95468.59;;;-0.84;93.20
22647;BME280;11490;42.726;23.268;2022-12-22T00:13:34;95483.69;;;-0.77;95.55
22647;BME280;11490;42.726;23.268;2022-12-22T00:16:19;95478.09;;;-0.83;97.23
22647;BME280;11490;42.726;23.268;2022-12-22T00:19:11;95480.88;;;-0.76;95.86
22647;BME280;11490;42.726;23.268;2022-12-22T00:21:58;95475.31;;;-0.89;97.16
22647;BME280;11490;42.726;23.268;2022-12-22T00:24:44;95473.56;;;-1.23;97.94
22647;BME280;11490;42.726;23.268;2022-12-22T00:27:30;95474.88;;;-1.27;99.65
22647;BME280;11490;42.726;23.268;2022-12-22T00:30:15;95474.56;;;-1.16;99.76
22647;BME280;11490;42.726;23.268;2022-12-22T00:33:01;95476.50;;;-1.34;98.31
22647;BME280;11490;42.726;23.268;2022-12-22T00:35:47;95476.97;;;-1.30;99.43
22647;BME280;11490;42.726;23.268;2022-12-22T00:38:31;95471.97;;;-1.07;98.80
22647;BME280;11490;42.726;23.268;2022-12-22T00:41:16;95482.72;;;-1.27;97.95
22647;BME280;11490;42.726;23.268;2022-12-22T00:44:00;95474.25;;;-1.12;98.53
22647;BME280;11490;42.726;23.268;2022-12-22T00:46:44;95453.94;;;-1.27;98.13
22647;BME280;11490;42.726;23.268;2022-12-22T00:49:31;95467.44;;;-0.97;97.89
22647;BME280;11490;42.726;23.268;2022-12-22T00:52:17;95463.84;;;-0.96;96.74
22647;BME280;11490;42.726;23.268;2022-12-22T00:55:03;95475.59;;;-1.08;96.87
22647;BME280;11490;42.726;23.268;2022-12-22T00:57:51;95463.84;;;-0.96;96.12
22647;BME280;11490;42.726;23.268;2022-12-22T01:00:35;95461.22;;;-0.88;95.17
22647;BME280;11490;42.726;23.268;2022-12-22T01:03:19;95461.25;;;-0.80;94.00
22647;BME280;11490;42.726;23.268;2022-12-22T01:06:07;95453.50;;;-1.06;93.08
22647;BME280;11490;42.726;23.268;2022-12-22T01:08:51;95451.03;;;-1.07;93.22
22647;BME280;11490;42.726;23.268;2022-12-22T01:11:35;95457.28;;;-0.84;93.50
22647;BME280;11490;42.726;23.268;2022-12-22T01:14:19;95458.13;;;-0.84;93.38
22647;BME280;11490;42.726;23.268;2022-12-22T01:17:03;95449.09;;;-1.05;94.25
22647;BME280;11490;42.726;23.268;2022-12-22T01:19:47;95446.59;;;-1.23;96.18
22647;BME280;11490;42.726;23.268;2022-12-22T01:22:31;95449.72;;;-1.11;97.11
22647;BME280;11490;42.726;23.268;2022-12-22T01:25:19;95445.00;;;-1.00;95.78
22647;BME280;11490;42.726;23.268;2022-12-22T01:28:03;95456.31;;;-0.91;94.47
22647;BME280;11490;42.726;23.268;2022-12-22T01:30:47;95444.69;;;-0.97;93.36
22647;BME280;11490;42.726;23.268;2022-12-22T01:33:32;95442.59;;;-0.93;93.07
22647;BME280;11490;42.726;23.268;2022-12-22T01:36:16;95447.78;;;-1.09;92.80
22647;BME280;11490;42.726;23.268;2022-12-22T01:39:00;95447.78;;;-1.09;93.94
22647;BME280;11490;42.726;23.268;2022-12-22T01:41:45;95446.16;;;-1.10;94.63
22647;BME280;11490;42.726;23.268;2022-12-22T01:44:29;95452.03;;;-1.17;94.30
22647;BME280;11490;42.726;23.268;2022-12-22T01:50:19;95439.09;;;-1.18;94.38
22647;BME280;11490;42.726;23.268;2022-12-22T01:53:06;95440.91;;;-1.10;94.53
22647;BME280;11490;42.726;23.268;2022-12-22T01:55:52;95455.97;;;-0.96;93.48
22647;BME280;11490;42.726;23.268;2022-12-22T01:58:40;95454.31;;;-1.05;92.25
22647;BME280;11490;42.726;23.268;2022-12-22T02:01:25;95451.91;;;-1.49;94.77
22647;BME280;11490;42.726;23.268;2022-12-22T02:04:10;95443.84;;;-1.64;96.96
22647;BME280;11490;42.726;23.268;2022-12-22T02:06:58;95435.56;;;-1.85;97.08
22647;BME280;11490;42.726;23.268;2022-12-22T02:10:06;95439.09;;;-1.60;97.76
22647;BME280;11490;42.726;23.268;2022-12-22T02:13:10;95441.78;;;-1.44;97.81
22647;BME280;11490;42.726;23.268;2022-12-22T02:17:06;95444.47;;;-1.28;96.54
22647;BME280;11490;42.726;23.268;2022-12-22T02:25:25;95432.50;;;-1.80;99.70
22647;BME280;11490;42.726;23.268;2022-12-22T02:28:11;95426.84;;;-1.94;100.00
22647;BME280;11490;42.726;23.268;2022-12-22T02:30:55;95415.88;;;-1.71;100.00
22647;BME280;11490;42.726;23.268;2022-12-22T02:33:39;95427.34;;;-1.64;99.12
22647;BME280;11490;42.726;23.268;2022-12-22T02:36:59;95436.53;;;-1.52;100.00
22647;BME280;11490;42.726;23.268;2022-12-22T02:40:00;95433.00;;;-1.35;97.94
22647;BME280;11490;42.726;23.268;2022-12-22T02:42:56;95433.94;;;-1.44;95.91
22647;BME280;11490;42.726;23.268;2022-12-22T02:45:54;95437.09;;;-1.32;95.49
22647;BME280;11490;42.726;23.268;2022-12-22T02:48:55;95433.00;;;-1.35;93.84
22647;BME280;11490;42.726;23.268;2022-12-22T02:51:45;95430.06;;;-1.24;93.53
22647;BME280;11490;42.726;23.268;2022-12-22T02:54:33;95435.00;;;-1.21;93.13
22647;BME280;11490;42.726;23.268;2022-12-22T02:57:17;95436.31;;;-1.17;92.27
22647;BME280;11490;42.726;23.268;2022-12-22T03:00:03;95418.72;;;-1.57;93.57
22647;BME280;11490;42.726;23.268;2022-12-22T03:02:48;95424.63;;;-1.88;96.22
22647;BME280;11490;42.726;23.268;2022-12-22T03:05:32;95424.31;;;-1.77;98.20
22647;BME280;11490;42.726;23.268;2022-12-22T03:08:16;95412.63;;;-1.99;97.93
22647;BME280;11490;42.726;23.268;2022-12-22T03:10:59;95422.03;;;-1.80;99.41
22647;BME280;11490;42.726;23.268;2022-12-22T03:13:43;95415.13;;;-1.89;98.15
22647;BME280;11490;42.726;23.268;2022-12-22T03:16:27;95421.13;;;-1.63;97.73
22647;BME280;11490;42.726;23.268;2022-12-22T03:19:11;95415.72;;;-2.04;97.95
22647;BME280;11490;42.726;23.268;2022-12-22T03:21:55;95414.38;;;-2.08;98.27
22647;BME280;11490;42.726;23.268;2022-12-22T03:24:39;95428.09;;;-2.06;100.00
22647;BME280;11490;42.726;23.268;2022-12-22T03:27:23;95424.03;;;-1.74;99.26
22647;BME280;11490;42.726;23.268;2022-12-22T03:29:48;95431.34;;;-1.78;97.73
22647;BME280;11490;42.726;23.268;2022-12-22T03:32:13;95425.63;;;-1.81;98.25
22647;BME280;11490;42.726;23.268;2022-12-22T03:34:39;95415.66;;;-1.78;98.09
22647;BME280;11490;42.726;23.268;2022-12-22T03:37:04;95420.47;;;-1.65;96.76
22647;BME280;11490;42.726;23.268;2022-12-22T03:39:29;95424.75;;;-1.56;95.34
22647;BME280;11490;42.726;23.268;2022-12-22T03:41:55;95430.81;;;-1.56;94.47
22647;BME280;11490;42.726;23.268;2022-12-22T03:44:39;95431.94;;;-1.58;93.87
22647;BME280;11490;42.726;23.268;2022-12-22T03:47:23;95427.00;;;-1.61;95.83
22647;BME280;11490;42.726;23.268;2022-12-22T03:49:48;95420.84;;;-1.52;95.41
22647;BME280;11490;42.726;23.268;2022-12-22T03:52:13;95430.59;;;-1.62;96.06
22647;BME280;11490;42.726;23.268;2022-12-22T03:54:38;95414.78;;;-1.95;97.03
22647;BME280;11490;42.726;23.268;2022-12-22T03:57:04;95423.19;;;-2.09;98.79
22647;BME280;11490;42.726;23.268;2022-12-22T03:59:29;95415.63;;;-2.20;99.88
22647;BME280;11490;42.726;23.268;2022-12-22T04:01:55;95424.13;;;-1.84;99.51
22647;BME280;11490;42.726;23.268;2022-12-22T04:04:22;95426.94;;;-1.77;98.11
22647;BME280;11490;42.726;23.268;2022-12-22T04:06:48;95423.97;;;-1.82;98.47
22647;BME280;11490;42.726;23.268;2022-12-22T04:09:13;95432.50;;;-1.80;98.71
22647;BME280;11490;42.726;23.268;2022-12-22T04:11:39;95416.19;;;-1.74;97.55
22647;BME280;11490;42.726;23.268;2022-12-22T04:14:23;95413.75;;;-1.68;96.03
22647;BME280;11490;42.726;23.268;2022-12-22T04:16:48;95415.50;;;-1.76;97.24
22647;BME280;11490;42.726;23.268;2022-12-22T04:19:14;95415.94;;;-1.55;96.56
22647;BME280;11490;42.726;23.268;2022-12-22T04:21:40;95426.91;;;-1.43;95.22
22647;BME280;11490;42.726;23.268;2022-12-22T04:24:07;95421.66;;;-1.51;94.50
22647;BME280;11490;42.726;23.268;2022-12-22T04:26:32;95428.06;;;-1.38;93.97
22647;BME280;11490;42.726;23.268;2022-12-22T04:28:57;95418.53;;;-1.63;93.07
22647;BME280;11490;42.726;23.268;2022-12-22T04:31:23;95421.16;;;-1.55;94.77
22647;BME280;11490;42.726;23.268;2022-12-22T04:33:48;95420.53;;;-1.49;94.23
22647;BME280;11490;42.726;23.268;2022-12-22T04:36:14;95419.19;;;-1.53;94.61
22647;BME280;11490;42.726;23.268;2022-12-22T04:38:40;95412.00;;;-1.51;93.67
22647;BME280;11490;42.726;23.268;2022-12-22T04:41:06;95412.66;;;-1.57;92.84
22647;BME280;11490;42.726;23.268;2022-12-22T04:43:32;95415.59;;;-1.52;93.47
22647;BME280;11490;42.726;23.268;2022-12-22T04:45:58;95419.53;;;-1.56;95.04
22647;BME280;11490;42.726;23.268;2022-12-22T04:48:24;95406.94;;;-1.95;95.96
22647;BME280;11490;42.726;23.268;2022-12-22T04:50:51;95413.44;;;-1.99;97.13
22647;BME280;11490;42.726;23.268;2022-12-22T04:53:17;95409.47;;;-2.11;97.45
22647;BME280;11490;42.726;23.268;2022-12-22T04:55:48;95418.66;;;-1.99;96.93
22647;BME280;11490;42.726;23.268;2022-12-22T04:58:14;95410.06;;;-1.91;97.94
22647;BME280;11490;42.726;23.268;2022-12-22T05:00:39;95413.75;;;-1.68;97.06
22647;BME280;11490;42.726;23.268;2022-12-22T05:03:06;95407.81;;;-1.86;96.79
22647;BME280;11490;42.726;23.268;2022-12-22T05:05:32;95401.13;;;-1.80;96.16
22647;BME280;11490;42.726;23.268;2022-12-22T05:07:57;95404.78;;;-1.65;95.20
22647;BME280;11490;42.726;23.268;2022-12-22T05:10:22;95417.56;;;-1.54;94.42
22647;BME280;11490;42.726;23.268;2022-12-22T05:12:48;95408.38;;;-1.66;93.39
22647;BME280;11490;42.726;23.268;2022-12-22T05:15:40;95422.75;;;-1.62;93.54
22647;BME280;11490;42.726;23.268;2022-12-22T05:18:05;95413.59;;;-1.66;94.45
22647;BME280;11490;42.726;23.268;2022-12-22T05:20:31;95431.56;;;-1.71;94.69
22647;BME280;11490;42.726;23.268;2022-12-22T05:22:57;95427.34;;;-1.64;94.58
22647;BME280;11490;42.726;23.268;2022-12-22T05:25:22;95426.56;;;-1.90;95.37
22647;BME280;11490;42.726;23.268;2022-12-22T05:27:49;95429.28;;;-1.66;95.58
22647;BME280;11490;42.726;23.268;2022-12-22T05:30:16;95426.69;;;-1.58;93.83
22647;BME280;11490;42.726;23.268;2022-12-22T05:32:42;95434.59;;;-1.50;93.78
22647;BME280;11490;42.726;23.268;2022-12-22T05:35:08;95432.94;;;-1.51;93.10
22647;BME280;11490;42.726;23.268;2022-12-22T05:37:34;95427.72;;;-1.51;93.12
22647;BME280;11490;42.726;23.268;2022-12-22T05:39:59;95439.16;;;-1.44;92.68
22647;BME280;11490;42.726;23.268;2022-12-22T05:42:24;95430.31;;;-1.51;92.45
22647;BME280;11490;42.726;23.268;2022-12-22T05:47:30;95431.22;;;-1.68;93.59
22647;BME280;11490;42.726;23.268;2022-12-22T05:49:55;95423.72;;;-1.71;95.49
22647;BME280;11490;42.726;23.268;2022-12-22T05:52:21;95435.41;;;-1.49;94.72
22647;BME280;11490;42.726;23.268;2022-12-22T05:54:46;95419.84;;;-1.51;93.20
22647;BME280;11490;42.726;23.268;2022-12-22T05:57:11;95428.84;;;-1.53;92.55
22647;BME280;11490;42.726;23.268;2022-12-22T05:59:37;95423.78;;;-1.47;92.27
22647;BME280;11490;42.726;23.268;2022-12-22T06:02:02;95430.81;;;-1.56;91.67
22647;BME280;11490;42.726;23.268;2022-12-22T06:04:27;95426.50;;;-1.65;93.45
22647;BME280;11490;42.726;23.268;2022-12-22T06:06:53;95417.44;;;-1.86;96.99
22647;BME280;11490;42.726;23.268;2022-12-22T06:09:38;95426.63;;;-1.74;96.26
22647;BME280;11490;42.726;23.268;2022-12-22T06:12:04;95427.97;;;-1.62;96.27
22647;BME280;11490;42.726;23.268;2022-12-22T06:14:30;95428.69;;;-1.52;95.36
22647;BME280;11490;42.726;23.268;2022-12-22T06:16:56;95431.13;;;-1.50;94.21
22647;BME280;11490;42.726;23.268;2022-12-22T06:19:21;95436.75;;;-1.37;93.64
22647;BME280;11490;42.726;23.268;2022-12-22T06:21:47;95438.16;;;-1.51;92.84
22647;BME280;11490;42.726;23.268;2022-12-22T06:24:12;95428.38;;;-1.49;94.91
22647;BME280;11490;42.726;23.268;2022-12-22T06:26:37;95429.34;;;-1.50;94.46
22647;BME280;11490;42.726;23.268;2022-12-22T06:29:03;95444.47;;;-1.28;94.63
22647;BME280;11490;42.726;23.268;2022-12-22T06:31:28;95441.88;;;-1.20;93.34
22647;BME280;11490;42.726;23.268;2022-12-22T06:33:53;95441.56;;;-1.08;93.35
22647;BME280;11490;42.726;23.268;2022-12-22T06:36:19;95441.25;;;-0.97;92.12
22647;BME280;11490;42.726;23.268;2022-12-22T06:38:44;95443.88;;;-0.97;92.23
22647;BME280;11490;42.726;23.268;2022-12-22T06:41:10;95443.50;;;-1.19;93.57
22647;BME280;11490;42.726;23.268;2022-12-22T06:43:35;95455.50;;;-0.92;93.27
22647;BME280;11490;42.726;23.268;2022-12-22T06:46:00;95444.22;;;-0.84;92.55
22647;BME280;11490;42.726;23.268;2022-12-22T06:48:26;95444.41;;;-0.86;92.39
22647;BME280;11490;42.726;23.268;2022-12-22T06:50:56;95448.78;;;-1.02;92.54
22647;BME280;11490;42.726;23.268;2022-12-22T06:53:22;95459.75;;;-0.91;93.63
22647;BME280;11490;42.726;23.268;2022-12-22T06:55:48;95461.78;;;-1.27;94.56
22647;BME280;11490;42.726;23.268;2022-12-22T06:58:13;95464.16;;;-0.91;95.20
22647;BME280;11490;42.726;23.268;2022-12-22T07:00:45;95461.72;;;-0.77;94.95
22647;BME280;11490;42.726;23.268;2022-12-22T07:03:13;95449.13;;;-0.73;94.31
22647;BME280;11490;42.726;23.268;2022-12-22T07:05:39;95455.38;;;-0.66;94.53
22647;BME280;11490;42.726;23.268;2022-12-22T07:08:04;95456.66;;;-0.62;94.78
22647;BME280;11490;42.726;23.268;2022-12-22T07:10:30;95460.47;;;-0.48;94.30
22647;BME280;11490;42.726;23.268;2022-12-22T07:13:13;95451.44;;;-0.78;93.93
22647;BME280;11490;42.726;23.268;2022-12-22T07:15:46;95447.84;;;-0.53;95.13
22647;BME280;11490;42.726;23.268;2022-12-22T07:18:14;95452.09;;;-0.35;94.07
22647;BME280;11490;42.726;23.268;2022-12-22T07:20:40;95423.28;;;-0.44;93.25
22647;BME280;11490;42.726;23.268;2022-12-22T07:23:05;95441.91;;;-0.22;92.86
22647;BME280;11490;42.726;23.268;2022-12-22T07:25:31;95425.56;;;-0.16;92.47
22647;BME280;11490;42.726;23.268;2022-12-22T07:27:56;95439.94;;;-0.04;91.85
22647;BME280;11490;42.726;23.268;2022-12-22T07:30:22;95441.13;;;-0.39;92.69
22647;BME280;11490;42.726;23.268;2022-12-22T07:32:47;95435.69;;;-0.29;93.36
22647;BME280;11490;42.726;23.268;2022-12-22T07:35:12;95446.19;;;-0.13;93.24
22647;BME280;11490;42.726;23.268;2022-12-22T07:37:38;95440.59;;;0.06;93.05
22647;BME280;11490;42.726;23.268;2022-12-22T07:40:04;95453.00;;;0.20;92.93
22647;BME280;11490;42.726;23.268;2022-12-22T07:42:29;95448.78;;;0.03;93.84
22647;BME280;11490;42.726;23.268;2022-12-22T07:45:15;95448.44;;;0.14;92.39
22647;BME280;11490;42.726;23.268;2022-12-22T07:47:41;95452.72;;;0.07;93.81
22647;BME280;11490;42.726;23.268;2022-12-22T07:50:09;95445.69;;;-0.01;94.02
22647;BME280;11490;42.726;23.268;2022-12-22T07:53:03;95457.84;;;0.39;93.56
22647;BME280;11490;42.726;23.268;2022-12-22T07:55:33;95434.22;;;0.48;92.87
22647;BME280;11490;42.726;23.268;2022-12-22T07:58:00;95434.03;;;0.49;92.59
22647;BME280;11490;42.726;23.268;2022-12-22T08:00:26;95441.72;;;0.59;92.51
22647;BME280;11490;42.726;23.268;2022-12-22T08:02:54;95436.50;;;0.51;93.37
22647;BME280;11490;42.726;23.268;2022-12-22T08:05:20;95449.94;;;0.48;94.49
22647;BME280;11490;42.726;23.268;2022-12-22T08:07:50;95440.00;;;0.74;93.81
22647;BME280;11490;42.726;23.268;2022-12-22T08:10:16;95443.06;;;0.86;93.15
22647;BME280;11490;42.726;23.268;2022-12-22T08:12:42;95443.44;;;1.05;92.79
22647;BME280;11490;42.726;23.268;2022-12-22T08:15:08;95440.06;;;1.65;92.30
22647;BME280;11490;42.726;23.268;2022-12-22T08:17:34;95448.28;;;3.60;89.32
22647;BME280;11490;42.726;23.268;2022-12-22T08:20:00;95431.56;;;6.12;77.86
22647;BME280;11490;42.726;23.268;2022-12-22T08:22:25;95439.88;;;8.45;67.59
22647;BME280;11490;42.726;23.268;2022-12-22T08:24:53;95448.91;;;10.13;59.35
22647;BME280;11490;42.726;23.268;2022-12-22T08:27:28;95452.19;;;10.38;58.05
22647;BME280;11490;42.726;23.268;2022-12-22T08:29:57;95444.94;;;11.44;55.03
22647;BME280;11490;42.726;23.268;2022-12-22T08:32:23;95454.88;;;11.88;52.16
22647;BME280;11490;42.726;23.268;2022-12-22T08:34:49;95454.25;;;11.30;53.49
22647;BME280;11490;42.726;23.268;2022-12-22T08:37:18;95448.09;;;11.17;53.39
22647;BME280;11490;42.726;23.268;2022-12-22T08:39:47;95438.66;;;12.40;49.17
22647;BME280;11490;42.726;23.268;2022-12-22T08:42:15;95433.03;;;12.92;46.70
22647;BME280;11490;42.726;23.268;2022-12-22T08:44:42;95436.53;;;13.53;45.11
22647;BME280;11490;42.726;23.268;2022-12-22T08:47:08;95436.22;;;14.24;43.24
22647;BME280;11490;42.726;23.268;2022-12-22T08:49:33;95433.00;;;14.27;43.48
22647;BME280;11490;42.726;23.268;2022-12-22T08:52:00;95433.72;;;15.24;40.71
22647;BME280;11490;42.726;23.268;2022-12-22T08:54:25;95425.41;;;13.66;43.95
22647;BME280;11490;42.726;23.268;2022-12-22T08:56:51;95413.72;;;14.31;42.72
22647;BME280;11490;42.726;23.268;2022-12-22T08:59:17;95415.50;;;14.47;42.24
22647;BME280;11490;42.726;23.268;2022-12-22T09:01:43;95419.81;;;12.02;44.20
22647;BME280;11490;42.726;23.268;2022-12-22T09:04:12;95409.38;;;8.72;53.56
22647;BME280;11490;42.726;23.268;2022-12-22T09:06:38;95407.97;;;9.96;54.25
22647;BME280;11490;42.726;23.268;2022-12-22T09:09:06;95410.09;;;11.95;48.68
22647;BME280;11490;42.726;23.268;2022-12-22T09:11:32;95402.47;;;12.71;46.44
22647;BME280;11490;42.726;23.268;2022-12-22T09:13:58;95394.69;;;13.08;45.81
22647;BME280;11490;42.726;23.268;2022-12-22T09:16:26;95398.28;;;13.35;45.42
22647;BME280;11490;42.726;23.268;2022-12-22T09:18:51;95391.13;;;13.68;44.61
22647;BME280;11490;42.726;23.268;2022-12-22T09:21:17;95374.72;;;13.37;44.04
22647;BME280;11490;42.726;23.268;2022-12-22T09:23:43;95389.78;;;13.43;45.23
22647;BME280;11490;42.726;23.268;2022-12-22T09:26:10;95389.44;;;13.13;44.70
22647;BME280;11490;42.726;23.268;2022-12-22T09:28:37;95378.78;;;12.80;45.35
22647;BME280;11490;42.726;23.268;2022-12-22T09:31:03;95381.97;;;12.77;45.87
22647;BME280;11490;42.726;23.268;2022-12-22T09:33:30;95371.38;;;12.31;46.96
22647;BME280;11490;42.726;23.268;2022-12-22T09:35:56;95386.97;;;11.44;49.61
22647;BME280;11490;42.726;23.268;2022-12-22T09:38:25;95374.78;;;11.93;48.67
22647;BME280;11490;42.726;23.268;2022-12-22T09:40:50;95379.47;;;11.86;49.36
22647;BME280;11490;42.726;23.268;2022-12-22T09:43:17;95372.91;;;11.49;48.63
22647;BME280;11490;42.726;23.268;2022-12-22T09:45:46;95379.00;;;10.93;50.59
22647;BME280;11490;42.726;23.268;2022-12-22T09:48:12;95362.19;;;9.99;50.64
22647;BME280;11490;42.726;23.268;2022-12-22T09:50:39;95359.44;;;11.15;49.50
22647;BME280;11490;42.726;23.268;2022-12-22T09:53:10;95360.88;;;11.35;50.08
22647;BME280;11490;42.726;23.268;2022-12-22T09:55:40;95360.72;;;10.38;53.69
22647;BME280;11490;42.726;23.268;2022-12-22T10:00:54;95357.63;;;10.53;54.03
22647;BME280;11490;42.726;23.268;2022-12-22T10:03:45;95341.34;;;10.54;53.98
22647;BME280;11490;42.726;23.268;2022-12-22T10:06:22;95341.97;;;10.45;55.26
22647;BME280;11490;42.726;23.268;2022-12-22T10:08:53;95336.16;;;10.13;54.92
22647;BME280;11490;42.726;23.268;2022-12-22T10:11:18;95325.13;;;9.97;56.64
22647;BME280;11490;42.726;23.268;2022-12-22T10:13:44;95306.00;;;9.24;56.42
22647;BME280;11490;42.726;23.268;2022-12-22T10:16:23;95322.00;;;9.36;58.31
22647;BME280;11490;42.726;23.268;2022-12-22T10:19:16;95319.84;;;9.44;58.80
22647;BME280;11490;42.726;23.268;2022-12-22T10:21:45;95311.94;;;9.08;59.96
22647;BME280;11490;42.726;23.268;2022-12-22T10:24:25;95309.03;;;9.39;57.29
22647;BME280;11490;42.726;23.268;2022-12-22T10:26:55;95291.81;;;9.42;59.74
22647;BME280;11490;42.726;23.268;2022-12-22T10:29:22;95298.88;;;9.36;59.64
22647;BME280;11490;42.726;23.268;2022-12-22T10:32:01;95296.06;;;9.31;57.87
22647;BME280;11490;42.726;23.268;2022-12-22T10:34:28;95278.06;;;9.15;58.91
22647;BME280;11490;42.726;23.268;2022-12-22T10:36:58;95259.53;;;8.48;57.79
22647;BME280;11490;42.726;23.268;2022-12-22T10:39:34;95288.22;;;8.76;57.83
22647;BME280;11490;42.726;23.268;2022-12-22T10:42:12;95260.72;;;7.73;60.75
22647;BME280;11490;42.726;23.268;2022-12-22T10:44:38;95274.84;;;7.92;63.66
22647;BME280;11490;42.726;23.268;2022-12-22T10:47:17;95269.63;;;8.22;62.52
22647;BME280;11490;42.726;23.268;2022-12-22T10:49:50;95257.69;;;8.31;62.02
22647;BME280;11490;42.726;23.268;2022-12-22T10:52:48;95266.06;;;7.91;60.43
22647;BME280;11490;42.726;23.268;2022-12-22T10:55:26;95253.47;;;7.62;63.97
22647;BME280;11490;42.726;23.268;2022-12-22T10:58:18;95246.31;;;7.38;63.79
22647;BME280;11490;42.726;23.268;2022-12-22T11:01:00;95238.28;;;7.26;62.85
22647;BME280;11490;42.726;23.268;2022-12-22T11:03:30;95255.63;;;6.90;63.31
22647;BME280;11490;42.726;23.268;2022-12-22T11:05:57;95248.19;;;7.12;63.43
22647;BME280;11490;42.726;23.268;2022-12-22T11:08:23;95237.63;;;6.99;64.35
22647;BME280;11490;42.726;23.268;2022-12-22T11:11:04;95237.56;;;6.81;64.79
22647;BME280;11490;42.726;23.268;2022-12-22T11:16:30;95227.53;;;6.83;66.39
22647;BME280;11490;42.726;23.268;2022-12-22T11:27:37;95193.53;;;6.48;65.23
22647;BME280;11490;42.726;23.268;2022-12-22T11:36:56;95229.63;;;6.81;67.03
22647;BME280;11490;42.726;23.268;2022-12-22T11:49:43;95173.03;;;6.62;68.51
22647;BME280;11490;42.726;23.268;2022-12-22T11:59:36;95204.19;;;6.98;67.18
22647;BME280;11490;42.726;23.268;2022-12-22T12:35:09;95145.09;;;6.91;70.14
22647;BME280;11490;42.726;23.268;2022-12-22T12:37:43;95173.53;;;7.09;69.04
22647;BME280;11490;42.726;23.268;2022-12-22T12:40:31;95171.47;;;7.11;69.45
22647;BME280;11490;42.726;23.268;2022-12-22T12:43:03;95171.53;;;7.04;68.56
22647;BME280;11490;42.726;23.268;2022-12-22T12:45:37;95155.72;;;6.91;68.15
22647;BME280;11490;42.726;23.268;2022-12-22T12:50:48;95150.31;;;7.04;67.92
22647;BME280;11490;42.726;23.268;2022-12-22T12:53:15;95143.44;;;6.97;67.94
22647;BME280;11490;42.726;23.268;2022-12-22T13:01:09;95167.72;;;7.18;69.94
22647;BME280;11490;42.726;23.268;2022-12-22T13:04:58;95166.53;;;7.14;70.95
22647;BME280;11490;42.726;23.268;2022-12-22T13:13:45;95160.38;;;6.95;71.14
22647;BME280;11490;42.726;23.268;2022-12-22T13:18:43;95146.72;;;6.92;71.89
22647;BME280;11490;42.726;23.268;2022-12-22T13:21:20;95102.16;;;6.57;72.35
22647;BME280;11490;42.726;23.268;2022-12-22T13:24:27;95128.28;;;6.79;72.86
22647;BME280;11490;42.726;23.268;2022-12-22T13:29:46;95112.16;;;6.55;72.39
22647;BME280;11490;42.726;23.268;2022-12-22T13:32:19;95129.72;;;6.75;72.76
22647;BME280;11490;42.726;23.268;2022-12-22T13:37:29;95135.78;;;6.82;73.02
22647;BME280;11490;42.726;23.268;2022-12-22T13:40:39;95154.06;;;6.97;72.37
22647;BME280;11490;42.726;23.268;2022-12-22T13:43:19;95104.09;;;6.69;72.92
22647;BME280;11490;42.726;23.268;2022-12-22T13:46:02;95109.78;;;6.72;72.88
22647;BME280;11490;42.726;23.268;2022-12-22T13:48:49;95147.88;;;7.03;73.06
22647;BME280;11490;42.726;23.268;2022-12-22T13:51:47;95107.34;;;6.71;73.11
22647;BME280;11490;42.726;23.268;2022-12-22T13:54:46;95119.13;;;6.75;73.25
22647;BME280;11490;42.726;23.268;2022-12-22T13:57:26;95094.47;;;6.49;73.31
22647;BME280;11490;42.726;23.268;2022-12-22T14:00:25;95088.72;;;6.52;72.96
22647;BME280;11490;42.726;23.268;2022-12-22T14:02:58;95093.59;;;6.55;73.08
22647;BME280;11490;42.726;23.268;2022-12-22T14:11:29;95121.03;;;6.68;73.73
22647;BME280;11490;42.726;23.268;2022-12-22T14:13:56;95110.09;;;6.57;74.03
22647;BME280;11490;42.726;23.268;2022-12-22T14:16:21;95123.56;;;6.56;74.12
22647;BME280;11490;42.726;23.268;2022-12-22T14:18:46;95112.41;;;6.47;75.11
22647;BME280;11490;42.726;23.268;2022-12-22T14:21:12;95123.00;;;6.47;75.36
22647;BME280;11490;42.726;23.268;2022-12-22T14:23:39;95132.41;;;6.43;75.71
22647;BME280;11490;42.726;23.268;2022-12-22T14:26:07;95110.56;;;6.16;76.48
22647;BME280;11490;42.726;23.268;2022-12-22T14:28:41;95115.41;;;6.26;76.78
22647;BME280;11490;42.726;23.268;2022-12-22T14:31:14;95104.47;;;6.16;77.06
22647;BME280;11490;42.726;23.268;2022-12-22T14:33:53;95127.06;;;6.12;77.53
22647;BME280;11490;42.726;23.268;2022-12-22T14:39:19;95128.00;;;5.93;79.06
22647;BME280;11490;42.726;23.268;2022-12-22T14:41:54;95135.13;;;5.86;80.06
22647;BME280;11490;42.726;23.268;2022-12-22T14:44:42;95124.63;;;5.59;81.04
22647;BME280;11490;42.726;23.268;2022-12-22T14:54:48;95127.56;;;5.38;81.64
22647;BME280;11490;42.726;23.268;2022-12-22T14:57:21;95132.69;;;5.13;82.45
22647;BME280;11490;42.726;23.268;2022-12-22T15:02:32;95141.03;;;4.51;86.11
22647;BME280;11490;42.726;23.268;2022-12-22T15:05:09;95142.25;;;4.55;86.29
22647;BME280;11490;42.726;23.268;2022-12-22T15:08:34;95124.78;;;4.54;85.36
22647;BME280;11490;42.726;23.268;2022-12-22T15:10:40;95144.91;;;4.55;86.25
22647;BME280;11490;42.726;23.268;2022-12-22T15:13:12;95125.78;;;4.40;85.75
22647;BME280;11490;42.726;23.268;2022-12-22T15:15:41;95127.63;;;4.33;86.82
22647;BME280;11490;42.726;23.268;2022-12-22T15:18:12;95139.19;;;4.32;86.78
22647;BME280;11490;42.726;23.268;2022-12-22T15:20:38;95121.25;;;4.07;86.30
22647;BME280;11490;42.726;23.268;2022-12-22T15:23:09;95124.09;;;4.12;86.19
22647;BME280;11490;42.726;23.268;2022-12-22T15:25:34;95138.66;;;3.95;88.24
22647;BME280;11490;42.726;23.268;2022-12-22T15:28:00;95125.00;;;3.72;87.26
22647;BME280;11490;42.726;23.268;2022-12-22T15:30:31;95105.81;;;3.43;89.28
22647;BME280;11490;42.726;23.268;2022-12-22T15:33:11;95113.50;;;3.38;88.85
22647;BME280;11490;42.726;23.268;2022-12-22T15:35:43;95099.53;;;3.44;89.71